sensor_id;sensor_type;location;lat;lon;timestamp;P1;durP1;ratioP1;P2;durP2;ratioP2
47483;SDS011;54076;50.322;18.650;2022-08-25T00:00:48;12.60;;;3.20;;
47483;SDS011;54076;50.322;18.650;2022-08-25T00:05:49;12.10;;;3.00;;
47483;SDS011;54076;50.322;18.650;2022-08-25T00:10:50;9.80;;;2.90;;
47483;SDS011;54076;50.322;18.650;2022-08-25T00:15:51;12.80;;;3.50;;
47483;SDS011;54076;50.322;18.650;2022-08-25T00:20:53;13.20;;;3.00;;
47483;SDS011;54076;50.322;18.650;2022-08-25T00:25:54;10.50;;;3.10;;
47483;SDS011;54076;50.322;18.650;2022-08-25T00:30:56;12.10;;;3.40;;
47483;SDS011;54076;50.322;18.650;2022-08-25T00:35:58;9.00;;;3.00;;
47483;SDS011;54076;50.322;18.650;2022-08-25T00:40:59;10.70;;;3.40;;
47483;SDS011;54076;50.322;18.650;2022-08-25T00:46:15;9.40;;;3.20;;
47483;SDS011;54076;50.322;18.650;2022-08-25T00:51:35;9.00;;;3.00;;
47483;SDS011;54076;50.322;18.650;2022-08-25T00:56:43;8.10;;;3.00;;
47483;SDS011;54076;50.322;18.650;2022-08-25T01:01:45;13.00;;;3.20;;
47483;SDS011;54076;50.322;18.650;2022-08-25T01:06:48;12.50;;;3.30;;
47483;SDS011;54076;50.322;18.650;2022-08-25T01:11:49;8.80;;;3.60;;
47483;SDS011;54076;50.322;18.650;2022-08-25T01:16:50;9.90;;;3.40;;
47483;SDS011;54076;50.322;18.650;2022-08-25T01:21:53;9.60;;;2.60;;
47483;SDS011;54076;50.322;18.650;2022-08-25T01:26:54;11.20;;;2.60;;
47483;SDS011;54076;50.322;18.650;2022-08-25T01:31:58;13.50;;;3.10;;
47483;SDS011;54076;50.322;18.650;2022-08-25T01:37:01;12.90;;;3.70;;
47483;SDS011;54076;50.322;18.650;2022-08-25T01:47:06;12.70;;;3.90;;
47483;SDS011;54076;50.322;18.650;2022-08-25T01:52:50;11.60;;;3.60;;
47483;SDS011;54076;50.322;18.650;2022-08-25T01:58:06;11.00;;;3.60;;
47483;SDS011;54076;50.322;18.650;2022-08-25T02:03:07;9.20;;;3.00;;
47483;SDS011;54076;50.322;18.650;2022-08-25T02:08:09;10.40;;;3.30;;
47483;SDS011;54076;50.322;18.650;2022-08-25T02:13:11;9.20;;;3.20;;
47483;SDS011;54076;50.322;18.650;2022-08-25T02:18:12;10.90;;;3.40;;
47483;SDS011;54076;50.322;18.650;2022-08-25T02:23:14;11.70;;;3.40;;
47483;SDS011;54076;50.322;18.650;2022-08-25T02:28:15;8.90;;;3.30;;
47483;SDS011;54076;50.322;18.650;2022-08-25T02:33:16;10.10;;;3.60;;
47483;SDS011;54076;50.322;18.650;2022-08-25T02:38:17;10.40;;;3.60;;
47483;SDS011;54076;50.322;18.650;2022-08-25T02:43:18;10.90;;;3.80;;
47483;SDS011;54076;50.322;18.650;2022-08-25T02:48:20;10.10;;;3.50;;
47483;SDS011;54076;50.322;18.650;2022-08-25T02:53:21;12.60;;;3.50;;
47483;SDS011;54076;50.322;18.650;2022-08-25T02:58:23;12.30;;;3.90;;
47483;SDS011;54076;50.322;18.650;2022-08-25T03:03:24;11.90;;;3.30;;
47483;SDS011;54076;50.322;18.650;2022-08-25T03:08:25;7.50;;;3.20;;
47483;SDS011;54076;50.322;18.650;2022-08-25T03:13:26;10.50;;;3.30;;
47483;SDS011;54076;50.322;18.650;2022-08-25T03:18:27;11.90;;;3.30;;
47483;SDS011;54076;50.322;18.650;2022-08-25T03:23:28;12.50;;;3.30;;
47483;SDS011;54076;50.322;18.650;2022-08-25T03:28:30;8.20;;;3.20;;
47483;SDS011;54076;50.322;18.650;2022-08-25T03:33:32;13.70;;;3.20;;
47483;SDS011;54076;50.322;18.650;2022-08-25T03:38:34;14.10;;;2.90;;
47483;SDS011;54076;50.322;18.650;2022-08-25T03:43:37;10.40;;;3.20;;
47483;SDS011;54076;50.322;18.650;2022-08-25T03:48:39;7.60;;;2.90;;
47483;SDS011;54076;50.322;18.650;2022-08-25T03:53:40;11.80;;;3.20;;
47483;SDS011;54076;50.322;18.650;2022-08-25T03:58:41;13.60;;;3.50;;
47483;SDS011;54076;50.322;18.650;2022-08-25T04:03:43;10.40;;;3.40;;
47483;SDS011;54076;50.322;18.650;2022-08-25T04:08:44;10.00;;;3.70;;
47483;SDS011;54076;50.322;18.650;2022-08-25T04:13:46;9.80;;;3.60;;
47483;SDS011;54076;50.322;18.650;2022-08-25T04:18:48;17.10;;;3.90;;
47483;SDS011;54076;50.322;18.650;2022-08-25T04:23:52;12.50;;;3.40;;
47483;SDS011;54076;50.322;18.650;2022-08-25T04:28:56;11.00;;;3.30;;
47483;SDS011;54076;50.322;18.650;2022-08-25T04:34:03;8.60;;;3.10;;
47483;SDS011;54076;50.322;18.650;2022-08-25T04:39:05;9.10;;;3.10;;
47483;SDS011;54076;50.322;18.650;2022-08-25T04:44:06;9.50;;;3.20;;
47483;SDS011;54076;50.322;18.650;2022-08-25T04:49:07;13.30;;;3.20;;
47483;SDS011;54076;50.322;18.650;2022-08-25T04:54:13;12.20;;;4.10;;
47483;SDS011;54076;50.322;18.650;2022-08-25T04:59:17;9.90;;;3.80;;
47483;SDS011;54076;50.322;18.650;2022-08-25T05:04:20;11.80;;;3.80;;
47483;SDS011;54076;50.322;18.650;2022-08-25T05:09:21;10.10;;;4.20;;
47483;SDS011;54076;50.322;18.650;2022-08-25T05:14:23;11.70;;;4.00;;
47483;SDS011;54076;50.322;18.650;2022-08-25T05:19:25;11.90;;;3.80;;
47483;SDS011;54076;50.322;18.650;2022-08-25T05:24:26;9.30;;;4.00;;
47483;SDS011;54076;50.322;18.650;2022-08-25T05:29:27;10.70;;;4.30;;
47483;SDS011;54076;50.322;18.650;2022-08-25T05:34:28;13.20;;;4.40;;
47483;SDS011;54076;50.322;18.650;2022-08-25T05:39:30;13.30;;;4.50;;
47483;SDS011;54076;50.322;18.650;2022-08-25T05:44:33;10.90;;;3.90;;
47483;SDS011;54076;50.322;18.650;2022-08-25T05:49:34;15.40;;;4.80;;
47483;SDS011;54076;50.322;18.650;2022-08-25T05:54:35;12.40;;;4.70;;
47483;SDS011;54076;50.322;18.650;2022-08-25T05:59:36;16.60;;;4.60;;
47483;SDS011;54076;50.322;18.650;2022-08-25T06:04:37;15.30;;;4.80;;
47483;SDS011;54076;50.322;18.650;2022-08-25T06:09:40;15.20;;;4.50;;
47483;SDS011;54076;50.322;18.650;2022-08-25T06:14:42;13.10;;;3.50;;
47483;SDS011;54076;50.322;18.650;2022-08-25T06:19:43;16.20;;;4.20;;
47483;SDS011;54076;50.322;18.650;2022-08-25T06:24:44;14.80;;;4.20;;
47483;SDS011;54076;50.322;18.650;2022-08-25T06:29:45;14.90;;;4.10;;
47483;SDS011;54076;50.322;18.650;2022-08-25T06:34:46;12.60;;;4.20;;
47483;SDS011;54076;50.322;18.650;2022-08-25T06:39:47;14.30;;;3.40;;
47483;SDS011;54076;50.322;18.650;2022-08-25T06:44:48;19.10;;;4.10;;
47483;SDS011;54076;50.322;18.650;2022-08-25T06:49:49;19.10;;;4.30;;
47483;SDS011;54076;50.322;18.650;2022-08-25T06:54:49;12.90;;;4.40;;
47483;SDS011;54076;50.322;18.650;2022-08-25T06:59:51;16.40;;;4.20;;
47483;SDS011;54076;50.322;18.650;2022-08-25T07:04:52;15.70;;;4.40;;
47483;SDS011;54076;50.322;18.650;2022-08-25T07:09:54;19.40;;;4.50;;
47483;SDS011;54076;50.322;18.650;2022-08-25T07:14:55;17.50;;;5.00;;
47483;SDS011;54076;50.322;18.650;2022-08-25T07:19:56;22.20;;;5.70;;
47483;SDS011;54076;50.322;18.650;2022-08-25T07:24:57;19.10;;;4.00;;
47483;SDS011;54076;50.322;18.650;2022-08-25T07:29:58;16.30;;;4.30;;
47483;SDS011;54076;50.322;18.650;2022-08-25T07:34:59;15.80;;;4.30;;
47483;SDS011;54076;50.322;18.650;2022-08-25T07:40:21;17.30;;;4.10;;
47483;SDS011;54076;50.322;18.650;2022-08-25T07:45:27;11.80;;;4.70;;
47483;SDS011;54076;50.322;18.650;2022-08-25T07:50:30;17.60;;;4.80;;
47483;SDS011;54076;50.322;18.650;2022-08-25T07:55:34;14.70;;;4.60;;
47483;SDS011;54076;50.322;18.650;2022-08-25T08:00:38;15.00;;;4.40;;
47483;SDS011;54076;50.322;18.650;2022-08-25T08:05:41;32.60;;;5.40;;
47483;SDS011;54076;50.322;18.650;2022-08-25T08:10:42;22.20;;;5.30;;
47483;SDS011;54076;50.322;18.650;2022-08-25T08:15:43;16.50;;;4.30;;
47483;SDS011;54076;50.322;18.650;2022-08-25T08:20:46;17.60;;;4.50;;
47483;SDS011;54076;50.322;18.650;2022-08-25T08:38:24;15.70;;;4.30;;
47483;SDS011;54076;50.322;18.650;2022-08-25T08:43:25;16.00;;;4.40;;
47483;SDS011;54076;50.322;18.650;2022-08-25T08:48:39;22.60;;;4.80;;
47483;SDS011;54076;50.322;18.650;2022-08-25T08:54:13;29.70;;;5.00;;
47483;SDS011;54076;50.322;18.650;2022-08-25T08:59:21;23.20;;;5.10;;
47483;SDS011;54076;50.322;18.650;2022-08-25T09:09:40;21.40;;;5.10;;
47483;SDS011;54076;50.322;18.650;2022-08-25T09:15:04;20.50;;;5.30;;
47483;SDS011;54076;50.322;18.650;2022-08-25T09:20:30;24.20;;;5.70;;
47483;SDS011;54076;50.322;18.650;2022-08-25T09:25:41;19.60;;;5.20;;
47483;SDS011;54076;50.322;18.650;2022-08-25T09:31:04;20.10;;;5.10;;
47483;SDS011;54076;50.322;18.650;2022-08-25T09:36:16;22.70;;;5.00;;
47483;SDS011;54076;50.322;18.650;2022-08-25T09:57:35;26.30;;;5.40;;
47483;SDS011;54076;50.322;18.650;2022-08-25T10:02:59;24.60;;;4.90;;
47483;SDS011;54076;50.322;18.650;2022-08-25T10:08:14;23.20;;;4.50;;
47483;SDS011;54076;50.322;18.650;2022-08-25T10:13:35;33.50;;;5.40;;
47483;SDS011;54076;50.322;18.650;2022-08-25T10:18:41;25.80;;;5.30;;
47483;SDS011;54076;50.322;18.650;2022-08-25T10:23:52;27.50;;;5.60;;
47483;SDS011;54076;50.322;18.650;2022-08-25T10:34:31;31.10;;;6.90;;
47483;SDS011;54076;50.322;18.650;2022-08-25T10:39:42;32.30;;;5.90;;
47483;SDS011;54076;50.322;18.650;2022-08-25T10:44:51;33.90;;;5.50;;
47483;SDS011;54076;50.322;18.650;2022-08-25T10:50:42;31.20;;;5.40;;
47483;SDS011;54076;50.322;18.650;2022-08-25T10:56:15;31.90;;;6.10;;
47483;SDS011;54076;50.322;18.650;2022-08-25T11:07:25;31.10;;;5.20;;
47483;SDS011;54076;50.322;18.650;2022-08-25T11:12:43;31.90;;;6.20;;
47483;SDS011;54076;50.322;18.650;2022-08-25T11:18:08;38.90;;;5.70;;
47483;SDS011;54076;50.322;18.650;2022-08-25T11:24:01;30.60;;;5.40;;
47483;SDS011;54076;50.322;18.650;2022-08-25T11:29:16;33.20;;;5.00;;
47483;SDS011;54076;50.322;18.650;2022-08-25T11:34:21;31.30;;;6.40;;
47483;SDS011;54076;50.322;18.650;2022-08-25T11:39:42;34.50;;;5.90;;
47483;SDS011;54076;50.322;18.650;2022-08-25T11:45:24;26.20;;;6.30;;
47483;SDS011;54076;50.322;18.650;2022-08-25T11:50:35;29.70;;;5.90;;
47483;SDS011;54076;50.322;18.650;2022-08-25T11:56:00;32.50;;;5.60;;
47483;SDS011;54076;50.322;18.650;2022-08-25T12:01:08;29.10;;;5.50;;
47483;SDS011;54076;50.322;18.650;2022-08-25T12:06:30;31.30;;;5.70;;
47483;SDS011;54076;50.322;18.650;2022-08-25T12:11:47;24.70;;;6.40;;
47483;SDS011;54076;50.322;18.650;2022-08-25T12:38:32;22.30;;;4.70;;
47483;SDS011;54076;50.322;18.650;2022-08-25T12:43:39;30.80;;;4.90;;
47483;SDS011;54076;50.322;18.650;2022-08-25T12:49:10;25.00;;;5.10;;
47483;SDS011;54076;50.322;18.650;2022-08-25T12:59:38;23.10;;;5.60;;
47483;SDS011;54076;50.322;18.650;2022-08-25T13:10:50;26.00;;;6.10;;
47483;SDS011;54076;50.322;18.650;2022-08-25T13:16:07;21.30;;;5.10;;
47483;SDS011;54076;50.322;18.650;2022-08-25T13:21:19;21.70;;;5.40;;
47483;SDS011;54076;50.322;18.650;2022-08-25T13:26:33;22.20;;;5.90;;
47483;SDS011;54076;50.322;18.650;2022-08-25T13:31:51;25.50;;;5.10;;
47483;SDS011;54076;50.322;18.650;2022-08-25T13:37:17;22.70;;;5.30;;
47483;SDS011;54076;50.322;18.650;2022-08-25T13:42:28;22.20;;;4.80;;
47483;SDS011;54076;50.322;18.650;2022-08-25T13:47:37;25.10;;;5.20;;
47483;SDS011;54076;50.322;18.650;2022-08-25T13:52:39;22.00;;;4.60;;
47483;SDS011;54076;50.322;18.650;2022-08-25T13:57:41;14.80;;;4.30;;
47483;SDS011;54076;50.322;18.650;2022-08-25T14:02:49;19.00;;;4.40;;
47483;SDS011;54076;50.322;18.650;2022-08-25T14:07:53;18.70;;;4.30;;
47483;SDS011;54076;50.322;18.650;2022-08-25T14:18:18;24.30;;;5.00;;
47483;SDS011;54076;50.322;18.650;2022-08-25T14:23:28;20.00;;;4.30;;
47483;SDS011;54076;50.322;18.650;2022-08-25T14:28:30;18.40;;;3.80;;
47483;SDS011;54076;50.322;18.650;2022-08-25T14:33:36;12.80;;;4.00;;
47483;SDS011;54076;50.322;18.650;2022-08-25T14:38:41;35.00;;;5.50;;
47483;SDS011;54076;50.322;18.650;2022-08-25T14:43:42;24.90;;;4.70;;
47483;SDS011;54076;50.322;18.650;2022-08-25T14:48:44;16.40;;;4.40;;
47483;SDS011;54076;50.322;18.650;2022-08-25T14:53:49;18.10;;;4.10;;
47483;SDS011;54076;50.322;18.650;2022-08-25T14:58:56;17.20;;;4.30;;
47483;SDS011;54076;50.322;18.650;2022-08-25T15:04:11;19.10;;;4.90;;
47483;SDS011;54076;50.322;18.650;2022-08-25T15:09:16;14.70;;;4.50;;
47483;SDS011;54076;50.322;18.650;2022-08-25T15:14:19;21.90;;;4.40;;
47483;SDS011;54076;50.322;18.650;2022-08-25T15:19:24;20.00;;;4.40;;
47483;SDS011;54076;50.322;18.650;2022-08-25T15:24:27;15.30;;;4.50;;
47483;SDS011;54076;50.322;18.650;2022-08-25T15:29:29;19.00;;;4.30;;
47483;SDS011;54076;50.322;18.650;2022-08-25T15:34:30;20.30;;;4.40;;
47483;SDS011;54076;50.322;18.650;2022-08-25T15:39:31;17.20;;;4.60;;
47483;SDS011;54076;50.322;18.650;2022-08-25T15:44:32;18.80;;;3.80;;
47483;SDS011;54076;50.322;18.650;2022-08-25T15:49:34;20.70;;;4.50;;
47483;SDS011;54076;50.322;18.650;2022-08-25T15:54:35;20.40;;;4.60;;
47483;SDS011;54076;50.322;18.650;2022-08-25T15:59:36;17.60;;;4.20;;
47483;SDS011;54076;50.322;18.650;2022-08-25T16:04:37;20.60;;;5.30;;
47483;SDS011;54076;50.322;18.650;2022-08-25T16:09:39;18.70;;;5.30;;
47483;SDS011;54076;50.322;18.650;2022-08-25T16:14:41;22.00;;;4.70;;
47483;SDS011;54076;50.322;18.650;2022-08-25T16:19:42;20.80;;;4.20;;
47483;SDS011;54076;50.322;18.650;2022-08-25T16:24:43;17.30;;;4.10;;
47483;SDS011;54076;50.322;18.650;2022-08-25T16:29:44;21.30;;;4.50;;
47483;SDS011;54076;50.322;18.650;2022-08-25T16:34:45;20.20;;;4.40;;
47483;SDS011;54076;50.322;18.650;2022-08-25T16:39:51;24.00;;;4.80;;
47483;SDS011;54076;50.322;18.650;2022-08-25T16:44:53;18.70;;;3.90;;
47483;SDS011;54076;50.322;18.650;2022-08-25T16:49:54;19.70;;;4.00;;
47483;SDS011;54076;50.322;18.650;2022-08-25T16:54:56;20.40;;;3.90;;
47483;SDS011;54076;50.322;18.650;2022-08-25T17:00:18;18.30;;;4.00;;
47483;SDS011;54076;50.322;18.650;2022-08-25T17:05:21;21.70;;;3.90;;
47483;SDS011;54076;50.322;18.650;2022-08-25T17:10:22;14.20;;;4.50;;
47483;SDS011;54076;50.322;18.650;2022-08-25T17:15:23;21.30;;;4.40;;
47483;SDS011;54076;50.322;18.650;2022-08-25T17:20:24;17.20;;;4.60;;
47483;SDS011;54076;50.322;18.650;2022-08-25T17:25:25;18.50;;;4.20;;
47483;SDS011;54076;50.322;18.650;2022-08-25T17:30:27;17.40;;;3.90;;
47483;SDS011;54076;50.322;18.650;2022-08-25T17:35:31;25.20;;;8.30;;
47483;SDS011;54076;50.322;18.650;2022-08-25T17:40:38;20.10;;;4.10;;
47483;SDS011;54076;50.322;18.650;2022-08-25T17:45:40;13.10;;;4.00;;
47483;SDS011;54076;50.322;18.650;2022-08-25T17:50:41;18.20;;;4.90;;
47483;SDS011;54076;50.322;18.650;2022-08-25T17:55:43;13.70;;;3.90;;
47483;SDS011;54076;50.322;18.650;2022-08-25T18:00:44;17.80;;;4.90;;
47483;SDS011;54076;50.322;18.650;2022-08-25T18:05:46;14.90;;;4.50;;
47483;SDS011;54076;50.322;18.650;2022-08-25T18:10:47;14.40;;;4.30;;
47483;SDS011;54076;50.322;18.650;2022-08-25T18:15:51;14.80;;;5.40;;
47483;SDS011;54076;50.322;18.650;2022-08-25T18:20:52;18.80;;;5.00;;
47483;SDS011;54076;50.322;18.650;2022-08-25T18:25:53;19.10;;;4.80;;
47483;SDS011;54076;50.322;18.650;2022-08-25T18:30:55;15.30;;;4.50;;
47483;SDS011;54076;50.322;18.650;2022-08-25T18:35:57;22.90;;;5.70;;
47483;SDS011;54076;50.322;18.650;2022-08-25T18:41:00;17.20;;;4.80;;
47483;SDS011;54076;50.322;18.650;2022-08-25T18:46:04;20.60;;;5.00;;
47483;SDS011;54076;50.322;18.650;2022-08-25T18:51:05;16.30;;;4.60;;
47483;SDS011;54076;50.322;18.650;2022-08-25T18:56:07;16.70;;;4.80;;
47483;SDS011;54076;50.322;18.650;2022-08-25T19:01:14;16.20;;;4.50;;
47483;SDS011;54076;50.322;18.650;2022-08-25T19:06:16;20.40;;;4.90;;
47483;SDS011;54076;50.322;18.650;2022-08-25T19:11:18;20.20;;;5.20;;
47483;SDS011;54076;50.322;18.650;2022-08-25T19:16:37;19.50;;;5.90;;
47483;SDS011;54076;50.322;18.650;2022-08-25T19:21:42;19.10;;;5.90;;
47483;SDS011;54076;50.322;18.650;2022-08-25T19:26:44;21.30;;;5.30;;
47483;SDS011;54076;50.322;18.650;2022-08-25T19:31:46;23.30;;;5.60;;
47483;SDS011;54076;50.322;18.650;2022-08-25T19:36:47;19.10;;;5.20;;
47483;SDS011;54076;50.322;18.650;2022-08-25T19:41:51;17.70;;;5.60;;
47483;SDS011;54076;50.322;18.650;2022-08-25T19:46:53;22.50;;;5.80;;
47483;SDS011;54076;50.322;18.650;2022-08-25T19:51:55;17.40;;;5.50;;
47483;SDS011;54076;50.322;18.650;2022-08-25T19:56:57;18.60;;;4.30;;
47483;SDS011;54076;50.322;18.650;2022-08-25T20:01:59;13.30;;;5.20;;
47483;SDS011;54076;50.322;18.650;2022-08-25T20:07:00;16.40;;;5.00;;
47483;SDS011;54076;50.322;18.650;2022-08-25T20:12:03;15.80;;;5.20;;
47483;SDS011;54076;50.322;18.650;2022-08-25T20:17:05;19.80;;;5.70;;
47483;SDS011;54076;50.322;18.650;2022-08-25T20:22:07;22.00;;;5.90;;
47483;SDS011;54076;50.322;18.650;2022-08-25T20:27:08;21.60;;;6.30;;
47483;SDS011;54076;50.322;18.650;2022-08-25T20:32:09;23.30;;;6.90;;
47483;SDS011;54076;50.322;18.650;2022-08-25T20:37:11;19.90;;;5.80;;
47483;SDS011;54076;50.322;18.650;2022-08-25T20:42:12;18.90;;;5.10;;
47483;SDS011;54076;50.322;18.650;2022-08-25T20:47:13;17.40;;;5.20;;
47483;SDS011;54076;50.322;18.650;2022-08-25T20:52:15;15.70;;;4.90;;
47483;SDS011;54076;50.322;18.650;2022-08-25T20:57:19;17.70;;;5.30;;
47483;SDS011;54076;50.322;18.650;2022-08-25T21:02:22;17.70;;;6.00;;
47483;SDS011;54076;50.322;18.650;2022-08-25T21:07:24;17.70;;;5.80;;
47483;SDS011;54076;50.322;18.650;2022-08-25T21:12:25;19.20;;;5.10;;
47483;SDS011;54076;50.322;18.650;2022-08-25T21:17:26;19.90;;;5.50;;
47483;SDS011;54076;50.322;18.650;2022-08-25T21:22:27;22.20;;;5.50;;
47483;SDS011;54076;50.322;18.650;2022-08-25T21:27:28;25.00;;;6.10;;
47483;SDS011;54076;50.322;18.650;2022-08-25T21:32:30;23.00;;;6.10;;
47483;SDS011;54076;50.322;18.650;2022-08-25T21:37:32;27.90;;;5.80;;
47483;SDS011;54076;50.322;18.650;2022-08-25T21:42:33;16.50;;;5.20;;
47483;SDS011;54076;50.322;18.650;2022-08-25T21:47:34;18.80;;;5.50;;
47483;SDS011;54076;50.322;18.650;2022-08-25T21:52:41;18.80;;;5.30;;
47483;SDS011;54076;50.322;18.650;2022-08-25T21:57:42;17.10;;;5.80;;
47483;SDS011;54076;50.322;18.650;2022-08-25T22:02:43;17.70;;;5.60;;
47483;SDS011;54076;50.322;18.650;2022-08-25T22:07:45;20.30;;;5.00;;
47483;SDS011;54076;50.322;18.650;2022-08-25T22:12:47;13.90;;;5.20;;
47483;SDS011;54076;50.322;18.650;2022-08-25T22:17:48;27.00;;;6.20;;
47483;SDS011;54076;50.322;18.650;2022-08-25T22:22:49;25.50;;;6.00;;
47483;SDS011;54076;50.322;18.650;2022-08-25T22:27:49;17.70;;;6.20;;
47483;SDS011;54076;50.322;18.650;2022-08-25T22:32:50;16.40;;;5.80;;
47483;SDS011;54076;50.322;18.650;2022-08-25T22:37:51;23.50;;;7.70;;
47483;SDS011;54076;50.322;18.650;2022-08-25T22:42:52;23.50;;;7.00;;
47483;SDS011;54076;50.322;18.650;2022-08-25T22:47:53;22.70;;;7.40;;
47483;SDS011;54076;50.322;18.650;2022-08-25T22:52:55;19.00;;;6.90;;
47483;SDS011;54076;50.322;18.650;2022-08-25T22:57:56;22.40;;;6.80;;
47483;SDS011;54076;50.322;18.650;2022-08-25T23:02:57;23.20;;;7.50;;
47483;SDS011;54076;50.322;18.650;2022-08-25T23:07:57;23.30;;;7.50;;
47483;SDS011;54076;50.322;18.650;2022-08-25T23:12:59;25.80;;;7.10;;
47483;SDS011;54076;50.322;18.650;2022-08-25T23:18:00;22.60;;;7.10;;
47483;SDS011;54076;50.322;18.650;2022-08-25T23:23:01;24.10;;;7.40;;
47483;SDS011;54076;50.322;18.650;2022-08-25T23:28:02;22.90;;;7.60;;
47483;SDS011;54076;50.322;18.650;2022-08-25T23:33:03;20.80;;;6.60;;
47483;SDS011;54076;50.322;18.650;2022-08-25T23:38:04;19.00;;;6.20;;
47483;SDS011;54076;50.322;18.650;2022-08-25T23:43:05;17.10;;;6.50;;
47483;SDS011;54076;50.322;18.650;2022-08-25T23:48:07;27.90;;;6.40;;
47483;SDS011;54076;50.322;18.650;2022-08-25T23:53:08;22.00;;;6.60;;
47483;SDS011;54076;50.322;18.650;2022-08-25T23:58:09;23.20;;;6.40;;
